sensor_id;sensor_type;location;lat;lon;timestamp;temperature;humidity
27270;DHT22;14769;56.934;24.176;2022-11-15T00:00:09;4.10;99.90
27270;DHT22;14769;56.934;24.176;2022-11-15T00:01:15;4.10;99.90
27270;DHT22;14769;56.934;24.176;2022-11-15T00:02:18;4.20;99.90
27270;DHT22;14769;56.934;24.176;2022-11-15T00:03:23;4.10;99.90
27270;DHT22;14769;56.934;24.176;2022-11-15T00:04:25;4.10;99.90
27270;DHT22;14769;56.934;24.176;2022-11-15T00:05:26;4.10;99.90
27270;DHT22;14769;56.934;24.176;2022-11-15T00:06:29;4.10;99.90
27270;DHT22;14769;56.934;24.176;2022-11-15T00:07:31;4.10;99.90
27270;DHT22;14769;56.934;24.176;2022-11-15T00:08:53;4.10;99.90
27270;DHT22;14769;56.934;24.176;2022-11-15T00:09:55;4.10;99.90
27270;DHT22;14769;56.934;24.176;2022-11-15T00:10:58;4.10;99.90
27270;DHT22;14769;56.934;24.176;2022-11-15T00:12:00;4.10;99.90
27270;DHT22;14769;56.934;24.176;2022-11-15T00:13:09;4.10;99.90
27270;DHT22;14769;56.934;24.176;2022-11-15T00:14:11;4.10;99.90
27270;DHT22;14769;56.934;24.176;2022-11-15T00:15:13;4.10;99.90
27270;DHT22;14769;56.934;24.176;2022-11-15T00:16:15;4.20;99.90
27270;DHT22;14769;56.934;24.176;2022-11-15T00:17:17;4.20;99.90
27270;DHT22;14769;56.934;24.176;2022-11-15T00:18:19;4.20;99.90
27270;DHT22;14769;56.934;24.176;2022-11-15T00:19:20;4.20;99.90
27270;DHT22;14769;56.934;24.176;2022-11-15T00:20:23;4.20;99.90
27270;DHT22;14769;56.934;24.176;2022-11-15T00:21:25;4.20;99.90
27270;DHT22;14769;56.934;24.176;2022-11-15T00:22:32;4.20;99.90
27270;DHT22;14769;56.934;24.176;2022-11-15T00:23:34;4.20;99.90
27270;DHT22;14769;56.934;24.176;2022-11-15T00:24:36;4.20;99.90
27270;DHT22;14769;56.934;24.176;2022-11-15T00:25:38;4.20;99.90
27270;DHT22;14769;56.934;24.176;2022-11-15T00:26:40;4.20;99.90
27270;DHT22;14769;56.934;24.176;2022-11-15T00:27:42;4.20;99.90
27270;DHT22;14769;56.934;24.176;2022-11-15T00:28:44;4.20;99.90
27270;DHT22;14769;56.934;24.176;2022-11-15T00:29:46;4.20;99.90
27270;DHT22;14769;56.934;24.176;2022-11-15T00:30:48;4.20;99.90
27270;DHT22;14769;56.934;24.176;2022-11-15T00:31:50;4.20;99.90
27270;DHT22;14769;56.934;24.176;2022-11-15T00:32:52;4.20;99.90
27270;DHT22;14769;56.934;24.176;2022-11-15T00:33:54;4.20;99.90
27270;DHT22;14769;56.934;24.176;2022-11-15T00:34:56;4.20;99.90
27270;DHT22;14769;56.934;24.176;2022-11-15T00:36:08;4.20;99.90
27270;DHT22;14769;56.934;24.176;2022-11-15T00:37:11;4.20;99.90
27270;DHT22;14769;56.934;24.176;2022-11-15T00:38:13;4.20;99.90
27270;DHT22;14769;56.934;24.176;2022-11-15T00:39:15;4.20;99.90
27270;DHT22;14769;56.934;24.176;2022-11-15T00:40:17;4.20;99.90
27270;DHT22;14769;56.934;24.176;2022-11-15T00:41:19;4.20;99.90
27270;DHT22;14769;56.934;24.176;2022-11-15T00:42:20;4.20;99.90
27270;DHT22;14769;56.934;24.176;2022-11-15T00:43:22;4.20;99.90
27270;DHT22;14769;56.934;24.176;2022-11-15T00:44:24;4.20;99.90
27270;DHT22;14769;56.934;24.176;2022-11-15T00:45:26;4.20;99.90
27270;DHT22;14769;56.934;24.176;2022-11-15T00:46:28;4.20;99.90
27270;DHT22;14769;56.934;24.176;2022-11-15T00:47:30;4.20;99.90
27270;DHT22;14769;56.934;24.176;2022-11-15T00:48:32;4.30;99.90
27270;DHT22;14769;56.934;24.176;2022-11-15T00:49:34;4.30;99.90
27270;DHT22;14769;56.934;24.176;2022-11-15T00:50:36;4.20;99.90
27270;DHT22;14769;56.934;24.176;2022-11-15T00:51:38;4.30;99.90
27270;DHT22;14769;56.934;24.176;2022-11-15T00:52:40;4.30;99.90
27270;DHT22;14769;56.934;24.176;2022-11-15T00:53:42;4.40;99.90
27270;DHT22;14769;56.934;24.176;2022-11-15T00:54:44;4.30;99.90
27270;DHT22;14769;56.934;24.176;2022-11-15T00:55:46;4.30;99.90
27270;DHT22;14769;56.934;24.176;2022-11-15T00:56:48;4.30;99.90
27270;DHT22;14769;56.934;24.176;2022-11-15T00:57:50;4.20;99.90
27270;DHT22;14769;56.934;24.176;2022-11-15T00:58:52;4.30;99.90
27270;DHT22;14769;56.934;24.176;2022-11-15T00:59:54;4.30;99.90
27270;DHT22;14769;56.934;24.176;2022-11-15T01:00:56;4.30;99.90
27270;DHT22;14769;56.934;24.176;2022-11-15T01:02:06;4.30;99.90
27270;DHT22;14769;56.934;24.176;2022-11-15T01:03:08;4.30;99.90
27270;DHT22;14769;56.934;24.176;2022-11-15T01:04:10;4.30;99.90
27270;DHT22;14769;56.934;24.176;2022-11-15T01:05:12;4.30;99.90
27270;DHT22;14769;56.934;24.176;2022-11-15T01:06:14;4.30;99.90
27270;DHT22;14769;56.934;24.176;2022-11-15T01:07:16;4.30;99.90
27270;DHT22;14769;56.934;24.176;2022-11-15T01:08:18;4.30;99.90
27270;DHT22;14769;56.934;24.176;2022-11-15T01:09:20;4.30;99.90
27270;DHT22;14769;56.934;24.176;2022-11-15T01:10:23;4.30;99.90
27270;DHT22;14769;56.934;24.176;2022-11-15T01:11:25;4.30;99.90
27270;DHT22;14769;56.934;24.176;2022-11-15T01:12:27;4.30;99.90
27270;DHT22;14769;56.934;24.176;2022-11-15T01:13:31;4.30;99.90
27270;DHT22;14769;56.934;24.176;2022-11-15T01:14:34;4.30;99.90
27270;DHT22;14769;56.934;24.176;2022-11-15T01:15:39;4.30;99.90
27270;DHT22;14769;56.934;24.176;2022-11-15T01:16:42;4.30;99.90
27270;DHT22;14769;56.934;24.176;2022-11-15T01:17:44;4.40;99.90
27270;DHT22;14769;56.934;24.176;2022-11-15T01:18:46;4.30;99.90
27270;DHT22;14769;56.934;24.176;2022-11-15T01:19:48;4.30;99.90
27270;DHT22;14769;56.934;24.176;2022-11-15T01:20:50;4.30;99.90
27270;DHT22;14769;56.934;24.176;2022-11-15T01:21:52;4.40;99.90
27270;DHT22;14769;56.934;24.176;2022-11-15T01:22:54;4.30;99.90
27270;DHT22;14769;56.934;24.176;2022-11-15T01:23:56;4.30;99.90
27270;DHT22;14769;56.934;24.176;2022-11-15T01:24:58;4.30;99.90
27270;DHT22;14769;56.934;24.176;2022-11-15T01:26:02;4.40;99.90
27270;DHT22;14769;56.934;24.176;2022-11-15T01:27:04;4.30;99.90
27270;DHT22;14769;56.934;24.176;2022-11-15T01:28:06;4.30;99.90
27270;DHT22;14769;56.934;24.176;2022-11-15T01:29:08;4.30;99.90
27270;DHT22;14769;56.934;24.176;2022-11-15T01:30:10;4.30;99.90
27270;DHT22;14769;56.934;24.176;2022-11-15T01:31:16;4.30;99.90
27270;DHT22;14769;56.934;24.176;2022-11-15T01:32:18;4.30;99.90
27270;DHT22;14769;56.934;24.176;2022-11-15T01:33:20;4.30;99.90
27270;DHT22;14769;56.934;24.176;2022-11-15T01:34:22;4.20;99.90
27270;DHT22;14769;56.934;24.176;2022-11-15T01:35:24;4.30;99.90
27270;DHT22;14769;56.934;24.176;2022-11-15T01:36:26;4.30;99.90
27270;DHT22;14769;56.934;24.176;2022-11-15T01:37:28;4.30;99.90
27270;DHT22;14769;56.934;24.176;2022-11-15T01:38:30;4.30;99.90
27270;DHT22;14769;56.934;24.176;2022-11-15T01:39:32;4.30;99.90
27270;DHT22;14769;56.934;24.176;2022-11-15T01:40:33;4.30;99.90
27270;DHT22;14769;56.934;24.176;2022-11-15T01:41:35;4.30;99.90
27270;DHT22;14769;56.934;24.176;2022-11-15T01:42:37;4.30;99.90
27270;DHT22;14769;56.934;24.176;2022-11-15T01:43:39;4.40;99.90
27270;DHT22;14769;56.934;24.176;2022-11-15T01:44:47;4.40;99.90
27270;DHT22;14769;56.934;24.176;2022-11-15T01:45:55;4.40;99.90
27270;DHT22;14769;56.934;24.176;2022-11-15T01:47:00;4.30;99.90
27270;DHT22;14769;56.934;24.176;2022-11-15T01:48:03;4.40;99.90
27270;DHT22;14769;56.934;24.176;2022-11-15T01:49:12;4.30;99.90
27270;DHT22;14769;56.934;24.176;2022-11-15T01:50:21;4.40;99.90
27270;DHT22;14769;56.934;24.176;2022-11-15T01:51:25;4.40;99.90
27270;DHT22;14769;56.934;24.176;2022-11-15T01:52:31;4.30;99.90
27270;DHT22;14769;56.934;24.176;2022-11-15T01:53:34;4.30;99.90
27270;DHT22;14769;56.934;24.176;2022-11-15T01:54:36;4.30;99.90
27270;DHT22;14769;56.934;24.176;2022-11-15T01:55:38;4.40;99.90
27270;DHT22;14769;56.934;24.176;2022-11-15T01:56:45;4.30;99.90
27270;DHT22;14769;56.934;24.176;2022-11-15T01:57:51;4.30;99.90
27270;DHT22;14769;56.934;24.176;2022-11-15T01:58:55;4.40;99.90
27270;DHT22;14769;56.934;24.176;2022-11-15T02:00:00;4.30;99.90
27270;DHT22;14769;56.934;24.176;2022-11-15T02:01:02;4.30;99.90
27270;DHT22;14769;56.934;24.176;2022-11-15T02:02:04;4.30;99.90
27270;DHT22;14769;56.934;24.176;2022-11-15T02:03:06;4.30;99.90
27270;DHT22;14769;56.934;24.176;2022-11-15T02:04:17;4.30;99.90
27270;DHT22;14769;56.934;24.176;2022-11-15T02:05:19;4.30;99.90
27270;DHT22;14769;56.934;24.176;2022-11-15T02:06:22;4.30;99.90
27270;DHT22;14769;56.934;24.176;2022-11-15T02:07:24;4.40;99.90
27270;DHT22;14769;56.934;24.176;2022-11-15T02:08:27;4.30;99.90
27270;DHT22;14769;56.934;24.176;2022-11-15T02:09:29;4.30;99.90
27270;DHT22;14769;56.934;24.176;2022-11-15T02:10:31;4.30;99.90
27270;DHT22;14769;56.934;24.176;2022-11-15T02:11:34;4.30;99.90
27270;DHT22;14769;56.934;24.176;2022-11-15T02:12:36;4.40;99.90
27270;DHT22;14769;56.934;24.176;2022-11-15T02:13:38;4.30;99.90
27270;DHT22;14769;56.934;24.176;2022-11-15T02:14:42;4.30;99.90
27270;DHT22;14769;56.934;24.176;2022-11-15T02:16:24;4.30;99.90
27270;DHT22;14769;56.934;24.176;2022-11-15T02:17:43;4.30;99.90
27270;DHT22;14769;56.934;24.176;2022-11-15T02:18:59;4.30;99.90
27270;DHT22;14769;56.934;24.176;2022-11-15T02:21:47;4.30;99.90
27270;DHT22;14769;56.934;24.176;2022-11-15T02:29:03;4.20;99.90
27270;DHT22;14769;56.934;24.176;2022-11-15T02:30:31;4.20;99.90
27270;DHT22;14769;56.934;24.176;2022-11-15T02:37:21;4.20;99.90
27270;DHT22;14769;56.934;24.176;2022-11-15T02:38:40;4.20;99.90
27270;DHT22;14769;56.934;24.176;2022-11-15T02:39:57;4.20;99.90
27270;DHT22;14769;56.934;24.176;2022-11-15T02:41:06;4.20;99.90
27270;DHT22;14769;56.934;24.176;2022-11-15T02:42:21;4.20;99.90
27270;DHT22;14769;56.934;24.176;2022-11-15T02:43:56;4.20;99.90
27270;DHT22;14769;56.934;24.176;2022-11-15T02:45:04;4.20;99.90
27270;DHT22;14769;56.934;24.176;2022-11-15T02:47:17;4.20;99.90
27270;DHT22;14769;56.934;24.176;2022-11-15T02:48:21;4.20;99.90
27270;DHT22;14769;56.934;24.176;2022-11-15T02:49:26;4.20;99.90
27270;DHT22;14769;56.934;24.176;2022-11-15T02:50:30;4.30;99.90
27270;DHT22;14769;56.934;24.176;2022-11-15T02:51:35;4.20;99.90
27270;DHT22;14769;56.934;24.176;2022-11-15T02:52:37;4.30;99.90
27270;DHT22;14769;56.934;24.176;2022-11-15T02:53:39;4.30;99.90
27270;DHT22;14769;56.934;24.176;2022-11-15T02:54:41;4.20;99.90
27270;DHT22;14769;56.934;24.176;2022-11-15T02:55:46;4.20;99.90
27270;DHT22;14769;56.934;24.176;2022-11-15T02:56:50;4.30;99.90
27270;DHT22;14769;56.934;24.176;2022-11-15T02:59:24;4.30;99.90
27270;DHT22;14769;56.934;24.176;2022-11-15T03:00:43;4.30;99.90
27270;DHT22;14769;56.934;24.176;2022-11-15T03:02:03;4.30;99.90
27270;DHT22;14769;56.934;24.176;2022-11-15T03:09:16;4.20;99.90
27270;DHT22;14769;56.934;24.176;2022-11-15T03:11:59;4.20;99.90
27270;DHT22;14769;56.934;24.176;2022-11-15T03:13:20;4.20;99.90
27270;DHT22;14769;56.934;24.176;2022-11-15T03:14:32;4.20;99.90
27270;DHT22;14769;56.934;24.176;2022-11-15T03:15:39;4.20;99.90
27270;DHT22;14769;56.934;24.176;2022-11-15T03:18:35;4.20;99.90
27270;DHT22;14769;56.934;24.176;2022-11-15T03:19:59;4.20;99.90
27270;DHT22;14769;56.934;24.176;2022-11-15T03:21:05;4.30;99.90
27270;DHT22;14769;56.934;24.176;2022-11-15T03:22:11;4.20;99.90
27270;DHT22;14769;56.934;24.176;2022-11-15T03:23:14;4.20;99.90
27270;DHT22;14769;56.934;24.176;2022-11-15T03:24:19;4.30;99.90
27270;DHT22;14769;56.934;24.176;2022-11-15T03:25:28;4.30;99.90
27270;DHT22;14769;56.934;24.176;2022-11-15T03:26:33;4.30;99.90
27270;DHT22;14769;56.934;24.176;2022-11-15T03:27:40;4.40;99.90
27270;DHT22;14769;56.934;24.176;2022-11-15T03:28:50;4.30;99.90
27270;DHT22;14769;56.934;24.176;2022-11-15T03:29:56;4.40;99.90
27270;DHT22;14769;56.934;24.176;2022-11-15T03:31:02;4.30;99.90
27270;DHT22;14769;56.934;24.176;2022-11-15T03:32:28;4.30;99.90
27270;DHT22;14769;56.934;24.176;2022-11-15T03:33:30;4.30;99.90
27270;DHT22;14769;56.934;24.176;2022-11-15T03:35:00;4.30;99.90
27270;DHT22;14769;56.934;24.176;2022-11-15T03:36:03;4.30;99.90
27270;DHT22;14769;56.934;24.176;2022-11-15T03:37:06;4.30;99.90
27270;DHT22;14769;56.934;24.176;2022-11-15T03:38:26;4.20;99.90
27270;DHT22;14769;56.934;24.176;2022-11-15T03:39:29;4.20;99.90
27270;DHT22;14769;56.934;24.176;2022-11-15T03:40:38;4.30;99.90
27270;DHT22;14769;56.934;24.176;2022-11-15T03:41:48;4.30;99.90
27270;DHT22;14769;56.934;24.176;2022-11-15T03:43:07;4.30;99.90
27270;DHT22;14769;56.934;24.176;2022-11-15T03:45:31;4.30;99.90
27270;DHT22;14769;56.934;24.176;2022-11-15T03:46:40;4.30;99.90
27270;DHT22;14769;56.934;24.176;2022-11-15T03:47:59;4.30;99.90
27270;DHT22;14769;56.934;24.176;2022-11-15T03:49:15;4.20;99.90
27270;DHT22;14769;56.934;24.176;2022-11-15T03:50:20;4.20;99.90
27270;DHT22;14769;56.934;24.176;2022-11-15T03:51:22;4.20;99.90
27270;DHT22;14769;56.934;24.176;2022-11-15T03:52:24;4.20;99.90
27270;DHT22;14769;56.934;24.176;2022-11-15T03:53:28;4.20;99.90
27270;DHT22;14769;56.934;24.176;2022-11-15T03:54:30;4.20;99.90
27270;DHT22;14769;56.934;24.176;2022-11-15T03:55:32;4.30;99.90
27270;DHT22;14769;56.934;24.176;2022-11-15T03:56:34;4.20;99.90
27270;DHT22;14769;56.934;24.176;2022-11-15T03:57:37;4.20;99.90
27270;DHT22;14769;56.934;24.176;2022-11-15T03:58:39;4.30;99.90
27270;DHT22;14769;56.934;24.176;2022-11-15T03:59:41;4.20;99.90
27270;DHT22;14769;56.934;24.176;2022-11-15T04:00:43;4.30;99.90
27270;DHT22;14769;56.934;24.176;2022-11-15T04:01:45;4.30;99.90
27270;DHT22;14769;56.934;24.176;2022-11-15T04:02:47;4.30;99.90
27270;DHT22;14769;56.934;24.176;2022-11-15T04:03:49;4.30;99.90
27270;DHT22;14769;56.934;24.176;2022-11-15T04:04:51;4.30;99.90
27270;DHT22;14769;56.934;24.176;2022-11-15T04:05:53;4.30;99.90
27270;DHT22;14769;56.934;24.176;2022-11-15T04:06:55;4.30;99.90
27270;DHT22;14769;56.934;24.176;2022-11-15T04:07:57;4.30;99.90
27270;DHT22;14769;56.934;24.176;2022-11-15T04:08:59;4.30;99.90
27270;DHT22;14769;56.934;24.176;2022-11-15T04:10:02;4.30;99.90
27270;DHT22;14769;56.934;24.176;2022-11-15T04:11:04;4.30;99.90
27270;DHT22;14769;56.934;24.176;2022-11-15T04:12:06;4.30;99.90
27270;DHT22;14769;56.934;24.176;2022-11-15T04:13:08;4.30;99.90
27270;DHT22;14769;56.934;24.176;2022-11-15T04:14:10;4.30;99.90
27270;DHT22;14769;56.934;24.176;2022-11-15T04:15:18;4.30;99.90
27270;DHT22;14769;56.934;24.176;2022-11-15T04:16:20;4.30;99.90
27270;DHT22;14769;56.934;24.176;2022-11-15T04:17:22;4.30;99.90
27270;DHT22;14769;56.934;24.176;2022-11-15T04:18:25;4.30;99.90
27270;DHT22;14769;56.934;24.176;2022-11-15T04:19:26;4.40;99.90
27270;DHT22;14769;56.934;24.176;2022-11-15T04:20:47;4.30;99.90
27270;DHT22;14769;56.934;24.176;2022-11-15T04:22:08;4.30;99.90
27270;DHT22;14769;56.934;24.176;2022-11-15T04:23:28;4.30;99.90
27270;DHT22;14769;56.934;24.176;2022-11-15T04:24:49;4.20;99.90
27270;DHT22;14769;56.934;24.176;2022-11-15T04:25:53;4.20;99.90
27270;DHT22;14769;56.934;24.176;2022-11-15T04:26:56;4.20;99.90
27270;DHT22;14769;56.934;24.176;2022-11-15T04:27:58;4.30;99.90
27270;DHT22;14769;56.934;24.176;2022-11-15T04:28:59;4.30;99.90
27270;DHT22;14769;56.934;24.176;2022-11-15T04:30:20;4.30;99.90
27270;DHT22;14769;56.934;24.176;2022-11-15T04:31:22;4.30;99.90
27270;DHT22;14769;56.934;24.176;2022-11-15T04:32:24;4.30;99.90
27270;DHT22;14769;56.934;24.176;2022-11-15T04:33:25;4.30;99.90
27270;DHT22;14769;56.934;24.176;2022-11-15T04:34:27;4.30;99.90
27270;DHT22;14769;56.934;24.176;2022-11-15T04:35:29;4.30;99.90
27270;DHT22;14769;56.934;24.176;2022-11-15T04:36:32;4.30;99.90
27270;DHT22;14769;56.934;24.176;2022-11-15T04:37:53;4.40;99.90
27270;DHT22;14769;56.934;24.176;2022-11-15T04:38:55;4.30;99.90
27270;DHT22;14769;56.934;24.176;2022-11-15T04:39:57;4.40;99.90
27270;DHT22;14769;56.934;24.176;2022-11-15T04:40:59;4.40;99.90
27270;DHT22;14769;56.934;24.176;2022-11-15T04:42:01;4.40;99.90
27270;DHT22;14769;56.934;24.176;2022-11-15T04:43:04;4.40;99.90
27270;DHT22;14769;56.934;24.176;2022-11-15T04:44:06;4.40;99.90
27270;DHT22;14769;56.934;24.176;2022-11-15T04:45:08;4.40;99.90
27270;DHT22;14769;56.934;24.176;2022-11-15T04:46:10;4.40;99.90
27270;DHT22;14769;56.934;24.176;2022-11-15T04:47:12;4.40;99.90
27270;DHT22;14769;56.934;24.176;2022-11-15T04:48:15;4.50;99.90
27270;DHT22;14769;56.934;24.176;2022-11-15T04:49:17;4.50;99.90
27270;DHT22;14769;56.934;24.176;2022-11-15T04:50:19;4.50;99.90
27270;DHT22;14769;56.934;24.176;2022-11-15T04:51:21;4.50;99.90
27270;DHT22;14769;56.934;24.176;2022-11-15T04:52:23;4.50;99.90
27270;DHT22;14769;56.934;24.176;2022-11-15T04:53:24;4.50;99.90
27270;DHT22;14769;56.934;24.176;2022-11-15T04:54:26;4.50;99.90
27270;DHT22;14769;56.934;24.176;2022-11-15T04:55:28;4.60;99.90
27270;DHT22;14769;56.934;24.176;2022-11-15T04:56:30;4.50;99.90
27270;DHT22;14769;56.934;24.176;2022-11-15T04:57:32;4.50;99.90
27270;DHT22;14769;56.934;24.176;2022-11-15T04:58:34;4.50;99.90
27270;DHT22;14769;56.934;24.176;2022-11-15T04:59:36;4.50;99.90
27270;DHT22;14769;56.934;24.176;2022-11-15T05:00:39;4.50;99.90
27270;DHT22;14769;56.934;24.176;2022-11-15T05:01:41;4.50;99.90
27270;DHT22;14769;56.934;24.176;2022-11-15T05:02:45;4.60;99.90
27270;DHT22;14769;56.934;24.176;2022-11-15T05:04:07;4.50;99.90
27270;DHT22;14769;56.934;24.176;2022-11-15T05:05:20;4.50;99.90
27270;DHT22;14769;56.934;24.176;2022-11-15T05:06:22;4.60;99.90
27270;DHT22;14769;56.934;24.176;2022-11-15T05:07:25;4.50;99.90
27270;DHT22;14769;56.934;24.176;2022-11-15T05:08:28;4.50;99.90
27270;DHT22;14769;56.934;24.176;2022-11-15T05:09:30;4.50;99.90
27270;DHT22;14769;56.934;24.176;2022-11-15T05:10:32;4.50;99.90
27270;DHT22;14769;56.934;24.176;2022-11-15T05:11:34;4.60;99.90
27270;DHT22;14769;56.934;24.176;2022-11-15T05:12:36;4.60;99.90
27270;DHT22;14769;56.934;24.176;2022-11-15T05:13:38;4.50;99.90
27270;DHT22;14769;56.934;24.176;2022-11-15T05:14:40;4.60;99.90
27270;DHT22;14769;56.934;24.176;2022-11-15T05:15:42;4.50;99.90
27270;DHT22;14769;56.934;24.176;2022-11-15T05:16:44;4.50;99.90
27270;DHT22;14769;56.934;24.176;2022-11-15T05:17:46;4.60;99.90
27270;DHT22;14769;56.934;24.176;2022-11-15T05:18:53;4.70;99.90
27270;DHT22;14769;56.934;24.176;2022-11-15T05:19:55;4.60;99.90
27270;DHT22;14769;56.934;24.176;2022-11-15T05:21:04;4.60;99.90
27270;DHT22;14769;56.934;24.176;2022-11-15T05:22:06;4.60;99.90
27270;DHT22;14769;56.934;24.176;2022-11-15T05:23:08;4.60;99.90
27270;DHT22;14769;56.934;24.176;2022-11-15T05:24:10;4.50;99.90
27270;DHT22;14769;56.934;24.176;2022-11-15T05:25:12;4.60;99.90
27270;DHT22;14769;56.934;24.176;2022-11-15T05:26:16;4.50;99.90
27270;DHT22;14769;56.934;24.176;2022-11-15T05:27:19;4.60;99.90
27270;DHT22;14769;56.934;24.176;2022-11-15T05:28:21;4.50;99.90
27270;DHT22;14769;56.934;24.176;2022-11-15T05:29:23;4.60;99.90
27270;DHT22;14769;56.934;24.176;2022-11-15T05:30:24;4.70;99.90
27270;DHT22;14769;56.934;24.176;2022-11-15T05:31:27;4.60;99.90
27270;DHT22;14769;56.934;24.176;2022-11-15T05:32:29;4.60;99.90
27270;DHT22;14769;56.934;24.176;2022-11-15T05:33:31;4.60;99.90
27270;DHT22;14769;56.934;24.176;2022-11-15T05:34:34;4.60;99.90
27270;DHT22;14769;56.934;24.176;2022-11-15T05:35:42;4.60;99.90
27270;DHT22;14769;56.934;24.176;2022-11-15T05:36:46;4.60;99.90
27270;DHT22;14769;56.934;24.176;2022-11-15T05:37:48;4.60;99.90
27270;DHT22;14769;56.934;24.176;2022-11-15T05:38:50;4.60;99.90
27270;DHT22;14769;56.934;24.176;2022-11-15T05:39:52;4.60;99.90
27270;DHT22;14769;56.934;24.176;2022-11-15T05:40:54;4.70;99.90
27270;DHT22;14769;56.934;24.176;2022-11-15T05:42:08;4.60;99.90
27270;DHT22;14769;56.934;24.176;2022-11-15T05:43:11;4.60;99.90
27270;DHT22;14769;56.934;24.176;2022-11-15T05:44:15;4.60;99.90
27270;DHT22;14769;56.934;24.176;2022-11-15T05:45:19;4.60;99.90
27270;DHT22;14769;56.934;24.176;2022-11-15T05:46:27;4.60;99.90
27270;DHT22;14769;56.934;24.176;2022-11-15T05:47:30;4.50;99.90
27270;DHT22;14769;56.934;24.176;2022-11-15T05:48:34;4.60;99.90
27270;DHT22;14769;56.934;24.176;2022-11-15T05:49:41;4.60;99.90
27270;DHT22;14769;56.934;24.176;2022-11-15T05:50:46;4.60;99.90
27270;DHT22;14769;56.934;24.176;2022-11-15T05:51:49;4.60;99.90
27270;DHT22;14769;56.934;24.176;2022-11-15T05:52:51;4.60;99.90
27270;DHT22;14769;56.934;24.176;2022-11-15T05:53:55;4.60;99.90
27270;DHT22;14769;56.934;24.176;2022-11-15T05:54:58;4.60;99.90
27270;DHT22;14769;56.934;24.176;2022-11-15T05:56:00;4.60;99.90
27270;DHT22;14769;56.934;24.176;2022-11-15T05:57:04;4.60;99.90
27270;DHT22;14769;56.934;24.176;2022-11-15T05:58:06;4.60;99.90
27270;DHT22;14769;56.934;24.176;2022-11-15T05:59:09;4.60;99.90
27270;DHT22;14769;56.934;24.176;2022-11-15T06:00:12;4.60;99.90
27270;DHT22;14769;56.934;24.176;2022-11-15T06:01:14;4.60;99.90
27270;DHT22;14769;56.934;24.176;2022-11-15T06:02:16;4.60;99.90
27270;DHT22;14769;56.934;24.176;2022-11-15T06:03:18;4.60;99.90
27270;DHT22;14769;56.934;24.176;2022-11-15T06:04:20;4.60;99.90
27270;DHT22;14769;56.934;24.176;2022-11-15T06:05:22;4.70;99.90
27270;DHT22;14769;56.934;24.176;2022-11-15T06:06:24;4.70;99.90
27270;DHT22;14769;56.934;24.176;2022-11-15T06:07:26;4.70;99.90
27270;DHT22;14769;56.934;24.176;2022-11-15T06:08:28;4.70;99.90
27270;DHT22;14769;56.934;24.176;2022-11-15T06:09:29;4.60;99.90
27270;DHT22;14769;56.934;24.176;2022-11-15T06:10:32;4.70;99.90
27270;DHT22;14769;56.934;24.176;2022-11-15T06:11:34;4.70;99.90
27270;DHT22;14769;56.934;24.176;2022-11-15T06:12:36;4.70;99.90
27270;DHT22;14769;56.934;24.176;2022-11-15T06:13:38;4.70;99.90
27270;DHT22;14769;56.934;24.176;2022-11-15T06:14:40;4.70;99.90
27270;DHT22;14769;56.934;24.176;2022-11-15T06:15:42;4.70;99.90
27270;DHT22;14769;56.934;24.176;2022-11-15T06:16:44;4.70;99.90
27270;DHT22;14769;56.934;24.176;2022-11-15T06:17:46;4.70;99.90
27270;DHT22;14769;56.934;24.176;2022-11-15T06:18:48;4.80;99.90
27270;DHT22;14769;56.934;24.176;2022-11-15T06:19:50;4.70;99.90
27270;DHT22;14769;56.934;24.176;2022-11-15T06:20:52;4.80;99.90
27270;DHT22;14769;56.934;24.176;2022-11-15T06:21:54;4.70;99.90
27270;DHT22;14769;56.934;24.176;2022-11-15T06:23:00;4.70;99.90
27270;DHT22;14769;56.934;24.176;2022-11-15T06:24:02;4.70;99.90
27270;DHT22;14769;56.934;24.176;2022-11-15T06:25:04;4.70;99.90
27270;DHT22;14769;56.934;24.176;2022-11-15T06:26:06;4.70;99.90
27270;DHT22;14769;56.934;24.176;2022-11-15T06:27:08;4.70;99.90
27270;DHT22;14769;56.934;24.176;2022-11-15T06:28:10;4.70;99.90
27270;DHT22;14769;56.934;24.176;2022-11-15T06:29:12;4.70;99.90
27270;DHT22;14769;56.934;24.176;2022-11-15T06:30:14;4.70;99.90
27270;DHT22;14769;56.934;24.176;2022-11-15T06:31:16;4.80;99.90
27270;DHT22;14769;56.934;24.176;2022-11-15T06:32:18;4.80;99.90
27270;DHT22;14769;56.934;24.176;2022-11-15T06:33:20;4.80;99.90
27270;DHT22;14769;56.934;24.176;2022-11-15T06:34:22;4.70;99.90
27270;DHT22;14769;56.934;24.176;2022-11-15T06:35:24;4.70;99.90
27270;DHT22;14769;56.934;24.176;2022-11-15T06:36:26;4.70;99.90
27270;DHT22;14769;56.934;24.176;2022-11-15T06:37:28;4.80;99.90
27270;DHT22;14769;56.934;24.176;2022-11-15T06:38:30;4.80;99.90
27270;DHT22;14769;56.934;24.176;2022-11-15T06:39:31;4.70;99.90
27270;DHT22;14769;56.934;24.176;2022-11-15T06:40:35;4.70;99.90
27270;DHT22;14769;56.934;24.176;2022-11-15T06:41:37;4.80;99.90
27270;DHT22;14769;56.934;24.176;2022-11-15T06:42:39;4.80;99.90
27270;DHT22;14769;56.934;24.176;2022-11-15T06:43:41;4.80;99.90
27270;DHT22;14769;56.934;24.176;2022-11-15T06:44:43;4.80;99.90
27270;DHT22;14769;56.934;24.176;2022-11-15T06:45:45;4.90;99.90
27270;DHT22;14769;56.934;24.176;2022-11-15T06:46:47;4.80;99.90
27270;DHT22;14769;56.934;24.176;2022-11-15T06:47:49;4.80;99.90
27270;DHT22;14769;56.934;24.176;2022-11-15T06:48:51;4.80;99.90
27270;DHT22;14769;56.934;24.176;2022-11-15T06:49:53;4.80;99.90
27270;DHT22;14769;56.934;24.176;2022-11-15T06:50:57;4.80;99.90
27270;DHT22;14769;56.934;24.176;2022-11-15T06:52:00;4.80;99.90
27270;DHT22;14769;56.934;24.176;2022-11-15T06:53:03;4.80;99.90
27270;DHT22;14769;56.934;24.176;2022-11-15T06:54:05;4.80;99.90
27270;DHT22;14769;56.934;24.176;2022-11-15T06:55:08;4.80;99.90
27270;DHT22;14769;56.934;24.176;2022-11-15T06:56:10;4.90;99.90
27270;DHT22;14769;56.934;24.176;2022-11-15T06:57:12;4.90;99.90
27270;DHT22;14769;56.934;24.176;2022-11-15T06:58:14;4.90;99.90
27270;DHT22;14769;56.934;24.176;2022-11-15T06:59:16;4.80;99.90
27270;DHT22;14769;56.934;24.176;2022-11-15T07:00:20;4.90;99.90
27270;DHT22;14769;56.934;24.176;2022-11-15T07:01:22;4.90;99.90
27270;DHT22;14769;56.934;24.176;2022-11-15T07:02:24;4.90;99.90
27270;DHT22;14769;56.934;24.176;2022-11-15T07:03:26;4.90;99.90
27270;DHT22;14769;56.934;24.176;2022-11-15T07:04:28;4.90;99.90
27270;DHT22;14769;56.934;24.176;2022-11-15T07:05:30;4.90;99.90
27270;DHT22;14769;56.934;24.176;2022-11-15T07:06:32;5.00;99.90
27270;DHT22;14769;56.934;24.176;2022-11-15T07:07:34;5.00;99.90
27270;DHT22;14769;56.934;24.176;2022-11-15T07:08:37;5.00;99.90
27270;DHT22;14769;56.934;24.176;2022-11-15T07:09:39;5.00;99.90
27270;DHT22;14769;56.934;24.176;2022-11-15T07:10:41;5.10;99.90
27270;DHT22;14769;56.934;24.176;2022-11-15T07:11:43;5.10;99.90
27270;DHT22;14769;56.934;24.176;2022-11-15T07:12:48;5.10;99.90